Aérodrome :
LOGIN :

S'inscrire | Disclaimer

   EN    FR    IT 

 










Légende :    VFR   VFR Marginal   IFR   IFR Intensif   IFR Très Intensif
Visi : 
Plafond : 
>= 8 km
>= 3000ft
5 à 8 km
1000 à 3000 ft
1500m à 5 km
500 à 1000 ft
800 à 1500m
200 à 500 ft
< 800m
< 200 ft
Symboles :   Orages  Brouillard  Fortes neiges  Fortes précipitations  Vent > 20 kt
SIGMETs :   Divers  Orages  Givrage  Turbulence  Onde Orograph.  Cendres Volcan.






- Altitude de l'aérodrome : 184 ft
- Code IATA : BRU


EBBR - Bruxelles

DERNIER METAR :
  • 261350Z 19012G24KT 160V240 7000 SHRA SCT040CB 21/12 Q1013 RETS TEMPO 18015G25KT 3000 TSRA

METARs EXPIRÉS :
  • 261320Z 15010KT 120V180 9999 FEW040CB 22/14 Q1012 TEMPO 18015G25KT 3000 TSRA
  • 261250Z 16009KT 130V200 9999 FEW035 21/14 Q1013 TEMPO FM1400 3000 TSRA
  • 261220Z 17008KT 130V200 9999 FEW030 20/15 Q1013 NOSIG
  • 261150Z 16008KT 9999 FEW030 18/13 Q1013 NOSIG
  • 261120Z 11004KT 090V150 9999 -SHRA SCT030 18/14 Q1013 NOSIG
  • 261050Z 12005KT 9999 VCSH FEW030 17/14 Q1014 NOSIG
  • 261020Z 09004KT 060V120 CAVOK 16/14 Q1014 NOSIG
  • 260950Z 08004KT 050V110 9999 FEW034 16/14 Q1014 NOSIG
  • 260920Z 04004KT 9999 FEW028 15/13 Q1014 NOSIG

TAF TAF EBBR
Valide du 26 à 12h jusqu'au 27 à 18h UTC


261120Z 2612/2718 16006KT 9999 FEW030
TEMPO 2612/2617 4500 SHRA SCT040CB
PROB40
TEMPO 2613/2617 23015G25KT 2500 TSRA SCT015 BKN030CB
TEMPO 2709/2718 4000 SHRA BKN020CB



MET'MAP, la Météo Aéronautique d'un coup d'oeil ! - Copyright ORBIFLY Décembre 2007 - Disclaimer

ORBIFLY MET'MAP TEAM :

Programmation & Développement : Alexandra Zaïnal
Sur une idée originale de : Baudouin d'Aumeries
Soutien technique & logistique : Manuel Goepfert
Assistance : Marc-Olivier Méhu




SOURCES & CREDITS :

   NOAA